Time;durP1;ratioP1;P1;durP2;ratioP2;P2;SDS_P1;SDS_P2;PMS_P1;PMS_P2;Temp;Humidity;BMP_temperature;BMP_pressure;BME280_temperature;BME280_humidity;BME280_pressure;Samples;Min_cycle;Max_cycle;Signal;HPM_P1;HPM_P2
2021/08/16 00:01:32;;;;;;;;;;;21.90;64.90;;;;;;5057883;28;1167;-78
2021/08/16 00:03:58;;;;;;;;;;;21.90;65.10;;;;;;5058994;28;1055;-77
2021/08/16 00:06:23;;;;;;;;;;;21.90;65.00;;;;;;5058992;28;1961;-76
2021/08/16 00:08:48;;;;;;;;;;;21.90;65.00;;;;;;5040778;28;1124;-75
2021/08/16 00:11:14;;;;;;;;;;;21.90;65.00;;;;;;5053814;28;1098;-76
2021/08/16 00:13:39;;;;;;;;;;;21.90;65.20;;;;;;5054149;28;1077;-75
2021/08/16 00:16:05;;;;;;;;;;;21.90;65.00;;;;;;5052026;28;1261;-77
2021/08/16 00:18:30;;;;;;;;;;;21.90;64.90;;;;;;5057767;28;1051;-78
2021/08/16 00:20:56;;;;;;;;;;;21.90;64.90;;;;;;5058135;28;1192;-77
2021/08/16 00:23:22;;;;;;;;;;;21.90;64.90;;;;;;5039607;28;1145;-78
2021/08/16 00:25:47;;;;;;;;;;;21.90;65.10;;;;;;5055150;28;1278;-77
2021/08/16 00:28:13;;;;;;;;;;;21.90;64.90;;;;;;5053151;28;1957;-78
2021/08/16 00:30:38;;;;;;;;;;;21.90;64.70;;;;;;5050115;28;1080;-76
2021/08/16 00:33:03;;;;;;;;;;;21.90;64.40;;;;;;5031484;28;1059;-77
2021/08/16 00:35:29;;;;;;;;;;;21.90;64.00;;;;;;5057326;28;1441;-77
2021/08/16 00:37:54;;;;;;;;;;;21.90;64.30;;;;;;5046004;28;1183;-76
2021/08/16 00:40:20;;;;;;;;;;;21.90;64.60;;;;;;5033084;28;1155;-76
2021/08/16 00:42:45;;;;;;;;;;;21.90;64.80;;;;;;5033442;28;1132;-76
2021/08/16 00:45:11;;;;;;;;;;;21.90;64.90;;;;;;5030363;28;1294;-74
2021/08/16 00:47:37;;;;;;;;;;;21.90;64.90;;;;;;5031657;28;1902;-76
2021/08/16 00:50:02;;;;;;;;;;;21.90;64.60;;;;;;5032290;28;1119;-76
2021/08/16 00:52:27;;;;;;;;;;;21.90;64.40;;;;;;5033101;28;1061;-75
2021/08/16 00:54:53;;;;;;;;;;;21.90;64.50;;;;;;5030961;28;1278;-74
2021/08/16 00:57:18;;;;;;;;;;;21.90;64.60;;;;;;5032588;28;1156;-76
2021/08/16 00:59:44;;;;;;;;;;;21.90;64.50;;;;;;5033446;28;1123;-75
2021/08/16 01:02:10;;;;;;;;;;;21.90;64.40;;;;;;5015520;28;1168;-75
2021/08/16 01:04:35;;;;;;;;;;;21.90;64.00;;;;;;5015047;28;1753;-75
2021/08/16 01:07:01;;;;;;;;;;;21.90;64.10;;;;;;5032705;28;1948;-75
2021/08/16 01:09:26;;;;;;;;;;;21.90;64.10;;;;;;5032086;28;1080;-75
2021/08/16 01:11:52;;;;;;;;;;;21.90;63.90;;;;;;5033115;28;1155;-75
2021/08/16 01:14:17;;;;;;;;;;;21.90;64.00;;;;;;5030878;28;1304;-76
2021/08/16 01:16:43;;;;;;;;;;;21.90;63.80;;;;;;5033130;28;1111;-76
2021/08/16 01:19:09;;;;;;;;;;;21.90;63.90;;;;;;5031502;28;1151;-75
2021/08/16 01:21:34;;;;;;;;;;;21.90;64.00;;;;;;5031996;28;1143;-75
2021/08/16 01:24:00;;;;;;;;;;;21.80;63.90;;;;;;5032093;28;1123;-75
2021/08/16 01:26:25;;;;;;;;;;;21.80;63.80;;;;;;5031972;28;1979;-76
2021/08/16 01:28:51;;;;;;;;;;;21.80;63.70;;;;;;5026284;28;1515;-75
2021/08/16 01:31:16;;;;;;;;;;;21.80;63.80;;;;;;5029775;28;1351;-74
2021/08/16 01:33:42;;;;;;;;;;;21.80;64.40;;;;;;5031452;28;1143;-75
2021/08/16 01:36:07;;;;;;;;;;;21.80;63.80;;;;;;5032520;28;1189;-75
2021/08/16 01:38:34;;;;;;;;;;;21.80;63.70;;;;;;5032487;28;1158;-74
2021/08/16 01:40:59;;;;;;;;;;;21.80;63.80;;;;;;5032600;28;1139;-74
2021/08/16 01:43:24;;;;;;;;;;;21.80;63.30;;;;;;5031726;28;1104;-75
2021/08/16 01:45:51;;;;;;;;;;;21.80;63.50;;;;;;5050093;28;1291;-75
2021/08/16 01:48:17;;;;;;;;;;;21.80;63.00;;;;;;5052187;28;1906;-74
2021/08/16 01:50:42;;;;;;;;;;;21.90;63.20;;;;;;5052745;28;1115;-75
2021/08/16 01:53:08;;;;;;;;;;;21.80;63.10;;;;;;5052661;28;1118;-75
2021/08/16 01:55:33;;;;;;;;;;;21.80;62.70;;;;;;5045647;28;1312;-74
2021/08/16 01:57:59;;;;;;;;;;;21.80;62.70;;;;;;5032367;28;1068;-75
2021/08/16 02:00:24;;;;;;;;;;;21.80;62.50;;;;;;5028983;28;1170;-77
2021/08/16 02:02:49;;;;;;;;;;;21.80;62.90;;;;;;5025292;28;1124;-74
2021/08/16 02:05:15;;;;;;;;;;;21.80;62.80;;;;;;5031852;28;1344;-76
2021/08/16 02:07:40;;;;;;;;;;;21.80;62.90;;;;;;5014130;28;1962;-75
2021/08/16 02:10:06;;;;;;;;;;;21.80;63.30;;;;;;5031128;28;1111;-75
2021/08/16 02:12:31;;;;;;;;;;;21.80;63.10;;;;;;5033044;28;1198;-75
2021/08/16 02:14:57;;;;;;;;;;;21.80;63.20;;;;;;5031023;28;1369;-75
2021/08/16 02:17:22;;;;;;;;;;;21.80;63.30;;;;;;5032225;28;1048;-75
2021/08/16 02:19:48;;;;;;;;;;;21.80;63.30;;;;;;5032099;28;1163;-75
2021/08/16 02:22:14;;;;;;;;;;;21.80;63.60;;;;;;5022848;28;1305;-75
2021/08/16 02:24:39;;;;;;;;;;;21.80;62.90;;;;;;5046431;28;1295;-74
2021/08/16 02:27:04;;;;;;;;;;;21.80;62.90;;;;;;5031943;28;1965;-74
2021/08/16 02:29:30;;;;;;;;;;;21.80;62.60;;;;;;5028030;28;1108;-74
2021/08/16 02:31:55;;;;;;;;;;;21.80;62.60;;;;;;5052067;28;1107;-73
2021/08/16 02:34:21;;;;;;;;;;;21.80;62.30;;;;;;5049689;28;1285;-74
2021/08/16 02:36:46;;;;;;;;;;;21.80;62.20;;;;;;5051757;28;1087;-74
2021/08/16 02:39:12;;;;;;;;;;;21.80;62.30;;;;;;5034288;28;1236;-74
2021/08/16 02:41:38;;;;;;;;;;;21.80;62.00;;;;;;5030379;28;1081;-74
2021/08/16 02:44:03;;;;;;;;;;;21.80;61.80;;;;;;5033891;28;1174;-74
2021/08/16 02:46:29;;;;;;;;;;;21.80;62.10;;;;;;5039012;28;1957;-75
2021/08/16 02:48:54;;;;;;;;;;;21.80;61.60;;;;;;5031760;28;1108;-75
2021/08/16 02:51:20;;;;;;;;;;;21.80;61.50;;;;;;5031843;28;1099;-75
2021/08/16 02:53:46;;;;;;;;;;;21.80;61.70;;;;;;5030728;28;1187;-75
2021/08/16 02:56:11;;;;;;;;;;;21.80;62.00;;;;;;5030013;28;1217;-75
2021/08/16 02:58:37;;;;;;;;;;;21.70;62.00;;;;;;5030947;28;1135;-75
2021/08/16 03:01:02;;;;;;;;;;;21.70;62.10;;;;;;5031557;28;1167;-74
2021/08/16 03:03:28;;;;;;;;;;;21.80;62.50;;;;;;5030712;28;1073;-75
2021/08/16 03:05:53;;;;;;;;;;;21.80;61.90;;;;;;5031486;28;1213;-75
2021/08/16 03:08:19;;;;;;;;;;;21.70;62.00;;;;;;5031613;28;1953;-75
2021/08/16 03:10:44;;;;;;;;;;;21.70;61.70;;;;;;5014044;28;1223;-75
2021/08/16 03:13:10;;;;;;;;;;;21.70;61.60;;;;;;5031789;28;1179;-75
2021/08/16 03:15:35;;;;;;;;;;;21.70;61.70;;;;;;5031446;28;1220;-75
2021/08/16 03:18:01;;;;;;;;;;;21.70;61.30;;;;;;5030529;28;1159;-75
2021/08/16 03:20:27;;;;;;;;;;;21.70;61.20;;;;;;5032052;28;1119;-75
2021/08/16 03:22:52;;;;;;;;;;;21.70;61.20;;;;;;5034003;28;1171;-75
2021/08/16 03:25:17;;;;;;;;;;;21.70;61.30;;;;;;5033021;28;1352;-75
2021/08/16 03:27:43;;;;;;;;;;;21.70;61.30;;;;;;5032883;28;1967;-75
2021/08/16 03:30:09;;;;;;;;;;;21.70;61.20;;;;;;5037503;28;1151;-75
2021/08/16 03:32:34;;;;;;;;;;;21.70;61.10;;;;;;5055037;28;1079;-75
2021/08/16 03:35:00;;;;;;;;;;;21.70;61.10;;;;;;5053486;28;1374;-75
2021/08/16 03:37:31;;;;;;;;;;;21.70;61.30;;;;;;5052326;28;1488;-75
2021/08/16 03:39:57;;;;;;;;;;;21.70;61.50;;;;;;5033738;28;1077;-75
2021/08/16 03:42:22;;;;;;;;;;;21.70;61.50;;;;;;5033791;28;1218;-75
2021/08/16 03:44:48;;;;;;;;;;;21.70;61.60;;;;;;5041283;28;1318;-75
2021/08/16 03:47:13;;;;;;;;;;;21.70;61.70;;;;;;5055009;28;1969;-75
2021/08/16 03:49:38;;;;;;;;;;;21.70;61.70;;;;;;5054923;28;1198;-75
2021/08/16 03:52:04;;;;;;;;;;;21.70;61.70;;;;;;5054071;28;1067;-75
2021/08/16 03:54:29;;;;;;;;;;;21.70;61.60;;;;;;5054195;28;1205;-75
2021/08/16 03:56:55;;;;;;;;;;;21.70;61.70;;;;;;5054867;28;1146;-75
2021/08/16 03:59:20;;;;;;;;;;;21.70;61.50;;;;;;5054864;28;1072;-75
2021/08/16 04:01:45;;;;;;;;;;;21.70;61.50;;;;;;5052891;28;1180;-75
2021/08/16 04:04:11;;;;;;;;;;;21.70;61.50;;;;;;5052683;28;1070;-75
2021/08/16 04:06:36;;;;;;;;;;;21.70;61.00;;;;;;5054292;28;1965;-75
2021/08/16 04:09:02;;;;;;;;;;;21.70;61.10;;;;;;5054741;28;1071;-75
2021/08/16 04:11:27;;;;;;;;;;;21.70;60.80;;;;;;5052711;28;1073;-75
2021/08/16 04:13:53;;;;;;;;;;;21.70;60.80;;;;;;5054264;28;1114;-75
2021/08/16 04:16:18;;;;;;;;;;;21.70;60.80;;;;;;5053854;28;1281;-74
2021/08/16 04:18:44;;;;;;;;;;;21.70;60.50;;;;;;5054161;28;1142;-74
2021/08/16 04:21:09;;;;;;;;;;;21.60;60.60;;;;;;5052944;28;1107;-75
2021/08/16 04:23:34;;;;;;;;;;;21.60;60.50;;;;;;5036501;28;1412;-75
2021/08/16 04:26:00;;;;;;;;;;;21.60;60.70;;;;;;5052056;28;1296;-75
2021/08/16 04:28:25;;;;;;;;;;;21.60;60.80;;;;;;5050855;28;1898;-75
2021/08/16 04:30:51;;;;;;;;;;;21.60;60.70;;;;;;5034179;28;1162;-75
2021/08/16 04:33:17;;;;;;;;;;;21.60;61.50;;;;;;5033140;28;1111;-75
2021/08/16 04:35:43;;;;;;;;;;;21.60;60.90;;;;;;5032223;28;1288;-75
2021/08/16 04:38:08;;;;;;;;;;;21.60;60.70;;;;;;5034182;28;1166;-75
2021/08/16 04:40:34;;;;;;;;;;;21.60;60.90;;;;;;5033881;28;1072;-75
2021/08/16 04:42:59;;;;;;;;;;;21.60;61.00;;;;;;5034191;28;1151;-75
2021/08/16 04:45:25;;;;;;;;;;;21.60;60.90;;;;;;5033533;28;1312;-74
2021/08/16 04:47:50;;;;;;;;;;;21.60;61.10;;;;;;5032325;28;1966;-74
2021/08/16 04:50:16;;;;;;;;;;;21.60;61.20;;;;;;5033621;28;1083;-75
2021/08/16 04:52:45;;;;;;;;;;;21.60;61.20;;;;;;5032583;28;1155;-74
2021/08/16 04:55:10;;;;;;;;;;;21.60;61.40;;;;;;5033180;28;1377;-75
2021/08/16 04:57:37;;;;;;;;;;;21.70;61.40;;;;;;5032600;28;1184;-75
2021/08/16 05:00:03;;;;;;;;;;;21.60;61.40;;;;;;5032080;28;1021;-75
2021/08/16 05:02:28;;;;;;;;;;;21.60;61.90;;;;;;5032183;28;1528;-74
2021/08/16 05:04:55;;;;;;;;;;;21.60;62.40;;;;;;5033175;28;1264;-75
2021/08/16 05:07:21;;;;;;;;;;;21.70;63.00;;;;;;5033771;28;1955;-75
2021/08/16 05:09:47;;;;;;;;;;;21.60;65.40;;;;;;5032345;28;1029;-75
2021/08/16 05:12:13;;;;;;;;;;;21.60;66.00;;;;;;5015450;28;1208;-75
2021/08/16 05:14:38;;;;;;;;;;;21.70;66.90;;;;;;5032523;28;1314;-75
2021/08/16 05:17:03;;;;;;;;;;;21.70;67.50;;;;;;5031857;28;1084;-75
2021/08/16 05:19:29;;;;;;;;;;;21.70;66.90;;;;;;5033251;28;1064;-76
2021/08/16 05:21:54;;;;;;;;;;;21.70;68.10;;;;;;5032042;28;1131;-75
2021/08/16 05:24:20;;;;;;;;;;;21.70;67.00;;;;;;5015402;28;1314;-75
2021/08/16 05:26:45;;;;;;;;;;;21.70;67.20;;;;;;5051302;28;1906;-71
2021/08/16 05:29:11;;;;;;;;;;;21.70;67.30;;;;;;5016348;28;1906;-70
2021/08/16 05:31:36;;;;;;;;;;;21.70;67.10;;;;;;5037936;28;1150;-74
2021/08/16 05:34:02;;;;;;;;;;;21.70;66.90;;;;;;5023183;28;1760;-76
2021/08/16 05:36:27;;;;;;;;;;;21.70;67.30;;;;;;5030652;28;1366;-73
2021/08/16 05:38:52;;;;;;;;;;;21.70;66.90;;;;;;5025481;28;1209;-75
2021/08/16 05:41:18;;;;;;;;;;;21.70;67.10;;;;;;5052564;28;1288;-75
2021/08/16 05:43:43;;;;;;;;;;;21.70;67.10;;;;;;5049926;28;1150;-75
2021/08/16 05:46:09;;;;;;;;;;;21.70;66.60;;;;;;5031280;28;1910;-75
2021/08/16 05:48:34;;;;;;;;;;;21.70;66.70;;;;;;5030830;28;1139;-75
2021/08/16 05:50:59;;;;;;;;;;;21.70;66.30;;;;;;5032947;28;1072;-74
2021/08/16 05:53:25;;;;;;;;;;;21.70;66.40;;;;;;5032519;28;1041;-74
2021/08/16 05:55:50;;;;;;;;;;;21.70;65.60;;;;;;5030802;28;1308;-75
2021/08/16 05:58:16;;;;;;;;;;;21.70;66.00;;;;;;5032359;28;1111;-74
2021/08/16 06:00:41;;;;;;;;;;;21.70;66.50;;;;;;5032325;28;1083;-75
2021/08/16 06:03:07;;;;;;;;;;;21.70;66.30;;;;;;5030933;28;1604;-74
2021/08/16 06:05:32;;;;;;;;;;;21.70;66.50;;;;;;5031934;28;1212;-75
2021/08/16 06:07:58;;;;;;;;;;;21.70;66.30;;;;;;5030999;28;1952;-75
2021/08/16 06:10:23;;;;;;;;;;;21.70;66.30;;;;;;5032520;28;1202;-75
2021/08/16 06:12:48;;;;;;;;;;;21.70;66.50;;;;;;5030994;28;1143;-75
2021/08/16 06:15:14;;;;;;;;;;;21.70;66.40;;;;;;5030958;28;1227;-75
2021/08/16 06:17:40;;;;;;;;;;;21.70;66.40;;;;;;5025335;28;1684;-75
2021/08/16 06:20:06;;;;;;;;;;;21.70;66.50;;;;;;5031401;28;1289;-73
2021/08/16 06:22:33;;;;;;;;;;;21.70;66.60;;;;;;5023721;28;1419;-74
2021/08/16 06:24:59;;;;;;;;;;;21.70;66.30;;;;;;5030328;28;1340;-74
2021/08/16 06:27:24;;;;;;;;;;;21.70;66.40;;;;;;5045712;28;1959;-74
2021/08/16 06:29:50;;;;;;;;;;;21.70;66.50;;;;;;5038075;28;1097;-74
2021/08/16 06:32:15;;;;;;;;;;;21.70;66.40;;;;;;5051824;28;1063;-74
2021/08/16 06:34:42;;;;;;;;;;;21.70;66.30;;;;;;5031686;28;1311;-74
2021/08/16 06:37:08;;;;;;;;;;;21.70;66.50;;;;;;5032345;28;1072;-74
2021/08/16 06:39:33;;;;;;;;;;;21.70;66.70;;;;;;5037951;28;864;-74
2021/08/16 06:41:58;;;;;;;;;;;21.70;66.50;;;;;;5039349;28;1086;-74
2021/08/16 06:44:25;;;;;;;;;;;21.70;66.50;;;;;;5020364;28;1287;-74
2021/08/16 06:46:50;;;;;;;;;;;21.70;66.50;;;;;;5032328;28;1957;-74
2021/08/16 06:49:16;;;;;;;;;;;21.70;66.40;;;;;;5030689;28;1148;-74
2021/08/16 06:51:41;;;;;;;;;;;21.70;66.50;;;;;;5032159;28;1150;-74
2021/08/16 06:54:07;;;;;;;;;;;21.70;66.80;;;;;;5047273;28;1187;-74
2021/08/16 06:56:32;;;;;;;;;;;21.70;66.30;;;;;;5032817;28;1288;-74
2021/08/16 06:58:58;;;;;;;;;;;21.70;66.80;;;;;;5054382;28;1148;-74
2021/08/16 07:01:25;;;;;;;;;;;21.70;66.90;;;;;;5041886;28;1072;-74
2021/08/16 07:03:50;;;;;;;;;;;21.70;66.70;;;;;;5041096;28;1190;-74
2021/08/16 07:06:16;;;;;;;;;;;21.70;67.00;;;;;;5055811;28;1947;-74
2021/08/16 07:08:41;;;;;;;;;;;21.70;67.40;;;;;;5036437;28;1024;-74
2021/08/16 07:11:07;;;;;;;;;;;21.70;67.40;;;;;;5036045;28;1063;-74
2021/08/16 07:13:32;;;;;;;;;;;21.70;67.70;;;;;;5051011;28;996;-73
2021/08/16 07:15:57;;;;;;;;;;;21.70;67.80;;;;;;5035100;28;1310;-74
2021/08/16 07:18:23;;;;;;;;;;;21.70;67.80;;;;;;5035420;28;1080;-74
2021/08/16 07:20:48;;;;;;;;;;;21.70;67.50;;;;;;5035283;28;1053;-74
2021/08/16 07:23:14;;;;;;;;;;;21.70;67.40;;;;;;5034291;28;1211;-75
2021/08/16 07:25:39;;;;;;;;;;;21.70;68.10;;;;;;5051740;22;1781;-65
2021/08/16 07:28:05;;;;;;;;;;;21.70;67.70;;;;;;5025389;28;1918;-64
2021/08/16 07:30:30;;;;;;;;;;;21.80;68.10;;;;;;5011249;28;1468;-66
2021/08/16 07:32:55;;;;;;;;;;;21.80;68.00;;;;;;5017832;28;978;-66
2021/08/16 07:35:21;;;;;;;;;;;21.80;68.10;;;;;;5035234;28;1223;-66
2021/08/16 07:37:46;;;;;;;;;;;21.80;68.30;;;;;;5016888;28;1313;-66
2021/08/16 07:40:12;;;;;;;;;;;21.80;68.40;;;;;;5015677;28;1084;-65
2021/08/16 07:42:38;;;;;;;;;;;21.80;68.60;;;;;;5015742;28;1174;-65
2021/08/16 07:45:04;;;;;;;;;;;21.80;68.40;;;;;;5015248;28;1280;-65
2021/08/16 07:47:29;;;;;;;;;;;21.80;68.50;;;;;;5015418;28;1993;-65
2021/08/16 07:49:54;;;;;;;;;;;21.80;68.50;;;;;;5015678;28;1100;-65
2021/08/16 07:52:20;;;;;;;;;;;21.80;68.30;;;;;;5015497;28;1123;-66
2021/08/16 07:54:45;;;;;;;;;;;21.80;68.50;;;;;;5015273;28;1116;-65
2021/08/16 07:57:11;;;;;;;;;;;21.80;69.60;;;;;;5014211;28;1350;-67
2021/08/16 07:59:37;;;;;;;;;;;21.80;68.80;;;;;;5015323;28;1088;-67
2021/08/16 08:02:02;;;;;;;;;;;21.80;68.80;;;;;;5015077;28;1080;-66
2021/08/16 08:04:28;;;;;;;;;;;21.80;68.90;;;;;;5015182;28;1045;-66
2021/08/16 08:06:53;;;;;;;;;;;21.80;68.60;;;;;;5014611;28;1902;-66
2021/08/16 08:09:20;;;;;;;;;;;21.80;68.30;;;;;;5014415;28;1192;-65
2021/08/16 08:11:46;;;;;;;;;;;21.80;68.00;;;;;;5015069;28;1121;-65
2021/08/16 08:14:11;;;;;;;;;;;21.80;67.80;;;;;;5014802;28;1084;-66
2021/08/16 08:16:36;;;;;;;;;;;21.80;67.70;;;;;;5014759;28;1212;-65
2021/08/16 08:19:02;;;;;;;;;;;21.80;67.60;;;;;;5014996;28;1274;-66
2021/08/16 08:21:27;;;;;;;;;;;21.90;67.40;;;;;;5015146;28;1057;-66
2021/08/16 08:23:53;;;;;;;;;;;21.90;67.30;;;;;;5014832;28;997;-66
2021/08/16 08:26:18;;;;;;;;;;;21.90;67.40;;;;;;5014383;28;1903;-65
2021/08/16 08:28:44;;;;;;;;;;;21.90;67.30;;;;;;5014715;28;1060;-66
2021/08/16 08:31:09;;;;;;;;;;;21.90;67.10;;;;;;5013385;28;1113;-66
2021/08/16 08:33:37;;;;;;;;;;;21.90;67.00;;;;;;5014748;28;1244;-66
2021/08/16 08:36:02;;;;;;;;;;;21.90;67.00;;;;;;5014271;28;1363;-65
2021/08/16 08:38:28;;;;;;;;;;;21.90;67.00;;;;;;5013539;28;1411;-65
2021/08/16 08:40:53;;;;;;;;;;;21.90;67.00;;;;;;5014733;28;1068;-65
2021/08/16 08:43:19;;;;;;;;;;;21.90;67.50;;;;;;5013336;28;1305;-65
2021/08/16 08:45:45;;;;;;;;;;;21.90;67.60;;;;;;5013919;28;1301;-66
2021/08/16 08:48:10;;;;;;;;;;;21.90;67.50;;;;;;5024121;28;1906;-65
2021/08/16 08:50:36;;;;;;;;;;;22.00;68.00;;;;;;5016946;28;996;-66
2021/08/16 08:53:02;;;;;;;;;;;21.90;67.20;;;;;;5013463;28;1072;-66
2021/08/16 08:55:28;;;;;;;;;;;21.90;66.30;;;;;;5013827;28;1300;-65
2021/08/16 08:57:53;;;;;;;;;;;22.00;65.60;;;;;;5013452;28;1064;-66
2021/08/16 09:00:19;;;;;;;;;;;22.00;65.60;;;;;;5013102;28;1131;-67
2021/08/16 09:02:57;;;;;;;;;;;22.00;65.50;;;;;;5013126;28;1100;-66
2021/08/16 09:05:22;;;;;;;;;;;22.00;66.60;;;;;;5013759;28;1263;-66
2021/08/16 09:07:48;;;;;;;;;;;22.00;66.50;;;;;;5014153;28;1899;-66
2021/08/16 09:10:14;;;;;;;;;;;22.00;66.00;;;;;;5014032;28;1108;-66
2021/08/16 09:12:39;;;;;;;;;;;22.00;65.50;;;;;;5012844;28;1100;-66
2021/08/16 09:15:15;;;;;;;;;;;22.00;65.80;;;;;;5012395;28;1771;-66
2021/08/16 09:17:40;;;;;;;;;;;22.00;65.10;;;;;;5007968;28;1072;-65
2021/08/16 09:20:19;;;;;;;;;;;22.00;65.60;;;;;;5012345;28;1399;-65
2021/08/16 09:23:03;;;;;;;;;;;22.00;65.60;;;;;;5013757;28;1169;-66
2021/08/16 09:25:31;;;;;;;;;;;22.00;65.50;;;;;;5010616;28;2105;-65
2021/08/16 09:27:57;;;;;;;;;;;22.00;65.20;;;;;;4994845;28;2111;-65
2021/08/16 09:30:29;;;;;;;;;;;22.00;65.10;;;;;;5011484;28;1947;-65
2021/08/16 09:32:55;;;;;;;;;;;22.00;65.10;;;;;;5008495;28;1351;-65
2021/08/16 09:35:20;;;;;;;;;;;22.00;65.20;;;;;;5000663;28;1413;-66
2021/08/16 09:37:52;;;;;;;;;;;22.00;64.90;;;;;;5002488;28;1066;-65
2021/08/16 09:40:18;;;;;;;;;;;22.00;64.60;;;;;;5013266;28;1041;-66
2021/08/16 09:42:47;;;;;;;;;;;22.00;64.40;;;;;;5012897;28;1178;-65
2021/08/16 09:45:13;;;;;;;;;;;22.00;64.20;;;;;;5012299;28;1200;-65
2021/08/16 09:47:39;;;;;;;;;;;22.00;64.10;;;;;;5013424;28;1957;-65
2021/08/16 09:50:05;;;;;;;;;;;22.10;64.00;;;;;;5012341;28;1081;-66
2021/08/16 09:52:31;;;;;;;;;;;22.10;64.30;;;;;;5013125;28;1064;-66
2021/08/16 09:54:56;;;;;;;;;;;22.10;64.10;;;;;;5013173;28;1295;-65
2021/08/16 09:57:21;;;;;;;;;;;22.10;64.10;;;;;;5012167;28;1323;-65
2021/08/16 09:59:47;;;;;;;;;;;22.10;64.30;;;;;;5013356;28;1084;-65
2021/08/16 10:02:12;;;;;;;;;;;22.10;64.50;;;;;;5012059;28;1140;-65
2021/08/16 10:04:38;;;;;;;;;;;22.10;64.70;;;;;;5011607;28;1147;-66
2021/08/16 10:07:03;;;;;;;;;;;22.10;64.70;;;;;;5012824;28;1898;-67
2021/08/16 10:09:29;;;;;;;;;;;22.10;64.60;;;;;;5013182;28;1115;-67
2021/08/16 10:11:54;;;;;;;;;;;22.10;64.60;;;;;;5012049;28;1156;-66
2021/08/16 10:14:21;;;;;;;;;;;22.10;64.70;;;;;;5011787;28;1069;-66
2021/08/16 10:16:48;;;;;;;;;;;22.10;64.20;;;;;;5011931;28;1284;-66
2021/08/16 10:19:14;;;;;;;;;;;22.10;63.80;;;;;;5011919;28;1077;-67
2021/08/16 10:21:40;;;;;;;;;;;22.10;63.90;;;;;;5012823;28;1104;-66
2021/08/16 10:24:34;;;;;;;;;;;22.10;63.90;;;;;;5011675;28;1115;-66
2021/08/16 10:27:01;;;;;;;;;;;22.20;64.50;;;;;;5000125;28;1977;-66
2021/08/16 10:29:28;;;;;;;;;;;22.10;64.60;;;;;;5012911;28;1079;-66
2021/08/16 10:31:53;;;;;;;;;;;22.10;64.40;;;;;;5015442;28;902;-66
2021/08/16 10:34:28;;;;;;;;;;;22.10;64.00;;;;;;5015599;28;1187;-66
2021/08/16 10:36:57;;;;;;;;;;;22.10;63.30;;;;;;5015637;28;1279;-66
2021/08/16 10:39:33;;;;;;;;;;;22.20;63.10;;;;;;5015682;28;1279;-66
2021/08/16 10:42:13;;;;;;;;;;;22.10;63.10;;;;;;5017017;28;1111;-65
2021/08/16 10:44:42;;;;;;;;;;;22.20;62.60;;;;;;5016374;28;1091;-66
2021/08/16 10:47:08;;;;;;;;;;;22.20;61.70;;;;;;5016613;28;1906;-67
2021/08/16 10:49:35;;;;;;;;;;;22.20;63.60;;;;;;5016731;28;1048;-66
2021/08/16 10:52:00;;;;;;;;;;;22.20;64.40;;;;;;5016602;28;1104;-66
2021/08/16 10:54:26;;;;;;;;;;;22.20;64.40;;;;;;5015057;28;1073;-67
2021/08/16 10:56:52;;;;;;;;;;;22.20;65.30;;;;;;5016418;28;1296;-66
2021/08/16 10:59:24;;;;;;;;;;;22.20;65.10;;;;;;5015240;28;1085;-66
2021/08/16 11:01:50;;;;;;;;;;;22.20;65.00;;;;;;5016507;28;1139;-66
2021/08/16 11:04:25;;;;;;;;;;;22.10;64.30;;;;;;5015129;28;1085;-67
2021/08/16 11:06:54;;;;;;;;;;;22.10;65.10;;;;;;5016238;28;1971;-65
2021/08/16 11:09:23;;;;;;;;;;;22.20;65.40;;;;;;5016319;28;1139;-66
2021/08/16 11:11:52;;;;;;;;;;;22.20;65.00;;;;;;5028616;28;1085;-67
2021/08/16 11:14:21;;;;;;;;;;;22.20;64.90;;;;;;5014820;28;1064;-67
2021/08/16 11:16:50;;;;;;;;;;;22.20;64.30;;;;;;5026837;28;1648;-66
2021/08/16 11:19:16;;;;;;;;;;;22.20;64.00;;;;;;5014368;28;1364;-66
2021/08/16 11:22:01;;;;;;;;;;;22.20;64.00;;;;;;5006904;28;1464;-66
2021/08/16 11:24:28;;;;;;;;;;;22.20;64.20;;;;;;5010952;28;1617;-66
2021/08/16 11:26:53;;;;;;;;;;;22.20;64.20;;;;;;5014891;28;1975;-67
2021/08/16 11:29:23;;;;;;;;;;;22.20;63.70;;;;;;5015008;28;1704;-66
2021/08/16 11:31:52;;;;;;;;;;;22.20;63.30;;;;;;5025041;28;1135;-67
2021/08/16 11:34:18;;;;;;;;;;;22.20;62.60;;;;;;5019574;28;1382;-67
2021/08/16 11:36:43;;;;;;;;;;;22.20;65.10;;;;;;5015955;28;1359;-67
2021/08/16 11:39:08;;;;;;;;;;;22.20;65.00;;;;;;5016051;28;1580;-67
2021/08/16 11:41:34;;;;;;;;;;;22.20;64.40;;;;;;5015756;28;1472;-66
2021/08/16 11:44:15;;;;;;;;;;;22.20;65.00;;;;;;5027298;28;1454;-67
2021/08/16 11:46:40;;;;;;;;;;;22.20;64.00;;;;;;5014612;28;1902;-66
2021/08/16 11:49:06;;;;;;;;;;;22.20;64.00;;;;;;5015749;28;1182;-67
2021/08/16 11:51:32;;;;;;;;;;;22.20;64.00;;;;;;5014624;28;1372;-66
2021/08/16 11:53:58;;;;;;;;;;;22.20;64.00;;;;;;5014364;28;1624;-66
2021/08/16 11:56:23;;;;;;;;;;;22.20;62.20;;;;;;5015688;28;1622;-67
2021/08/16 11:58:49;;;;;;;;;;;22.20;61.70;;;;;;5020230;28;1182;-67
2021/08/16 12:01:14;;;;;;;;;;;22.20;62.50;;;;;;5024240;28;1384;-66
2021/08/16 12:03:40;;;;;;;;;;;22.20;62.80;;;;;;5014324;28;1617;-67
2021/08/16 12:06:09;;;;;;;;;;;22.20;63.30;;;;;;5015201;28;1413;-66
2021/08/16 12:08:35;;;;;;;;;;;22.20;63.00;;;;;;5014248;28;1953;-67
2021/08/16 12:11:00;;;;;;;;;;;22.20;62.30;;;;;;5015421;28;1373;-66
2021/08/16 12:13:26;;;;;;;;;;;22.20;62.00;;;;;;5018934;28;1622;-66
2021/08/16 12:15:52;;;;;;;;;;;22.20;61.70;;;;;;5023353;28;1339;-66
2021/08/16 12:18:28;;;;;;;;;;;22.20;61.70;;;;;;5027393;28;1232;-67
2021/08/16 12:20:54;;;;;;;;;;;22.20;61.30;;;;;;5015231;28;1590;-66
2021/08/16 12:23:30;;;;;;;;;;;22.20;61.30;;;;;;5028647;28;1434;-66
2021/08/16 12:25:55;;;;;;;;;;;22.20;61.40;;;;;;5013385;28;1440;-66
2021/08/16 12:28:21;;;;;;;;;;;22.20;61.40;;;;;;5015095;28;1914;-66
2021/08/16 12:30:47;;;;;;;;;;;22.20;61.70;;;;;;5014750;28;1472;-67
2021/08/16 12:33:13;;;;;;;;;;;22.20;61.70;;;;;;5015091;28;1577;-67
2021/08/16 12:35:38;;;;;;;;;;;22.20;61.80;;;;;;5013248;28;1594;-66
2021/08/16 12:38:04;;;;;;;;;;;22.20;61.30;;;;;;5013743;28;1377;-65
2021/08/16 12:40:29;;;;;;;;;;;22.20;61.20;;;;;;5014807;28;1707;-66
2021/08/16 12:43:02;;;;;;;;;;;22.20;60.70;;;;;;5014842;28;1661;-66
2021/08/16 12:45:28;;;;;;;;;;;22.20;60.60;;;;;;5013064;28;1521;-65
2021/08/16 12:48:04;;;;;;;;;;;22.20;60.90;;;;;;5014778;28;1982;-66
2021/08/16 12:50:30;;;;;;;;;;;22.30;60.50;;;;;;5013419;28;1697;-66
2021/08/16 12:52:56;;;;;;;;;;;22.20;60.50;;;;;;5014590;28;1346;-66
2021/08/16 12:55:21;;;;;;;;;;;22.20;60.30;;;;;;5012425;28;1694;-66
2021/08/16 12:57:47;;;;;;;;;;;22.30;60.40;;;;;;5013405;28;1658;-66
2021/08/16 13:00:12;;;;;;;;;;;22.30;60.30;;;;;;5014560;28;1404;-66
2021/08/16 13:02:40;;;;;;;;;;;22.30;61.00;;;;;;5014645;28;1406;-66
2021/08/16 13:05:05;;;;;;;;;;;22.30;61.10;;;;;;5013107;28;1592;-66
2021/08/16 13:07:31;;;;;;;;;;;22.30;61.30;;;;;;5014508;28;1907;-66
2021/08/16 13:09:56;;;;;;;;;;;22.30;61.00;;;;;;5013355;28;1601;-66
2021/08/16 13:12:22;;;;;;;;;;;22.30;61.00;;;;;;5014227;28;1661;-66
2021/08/16 13:14:49;;;;;;;;;;;22.30;61.10;;;;;;5012818;28;1567;-66
2021/08/16 13:17:14;;;;;;;;;;;22.20;61.10;;;;;;5014296;28;1686;-66
2021/08/16 13:19:40;;;;;;;;;;;22.30;60.50;;;;;;5014085;28;1339;-66
2021/08/16 13:22:06;;;;;;;;;;;22.30;60.40;;;;;;5014138;28;1362;-66
2021/08/16 13:24:32;;;;;;;;;;;22.30;60.00;;;;;;5013898;28;1195;-66
2021/08/16 13:26:58;;;;;;;;;;;22.30;60.20;;;;;;5022425;23;3928;-76
2021/08/16 13:29:23;;;;;;;;;;;22.20;60.40;;;;;;4990449;28;1342;-77
2021/08/16 13:31:49;;;;;;;;;;;22.20;60.50;;;;;;5013788;28;1167;-76
2021/08/16 13:34:16;;;;;;;;;;;22.20;60.80;;;;;;5012010;28;1207;-77
2021/08/16 13:36:41;;;;;;;;;;;22.20;60.80;;;;;;5007364;28;1311;-76
2021/08/16 13:39:06;;;;;;;;;;;22.20;60.70;;;;;;4982343;28;1258;-75
2021/08/16 13:41:32;;;;;;;;;;;22.20;61.00;;;;;;5015389;28;1089;-76
2021/08/16 13:43:57;;;;;;;;;;;22.20;60.60;;;;;;5011331;28;1292;-74
2021/08/16 13:46:23;;;;;;;;;;;22.20;60.00;;;;;;5004902;28;1307;-75
2021/08/16 13:48:48;;;;;;;;;;;22.20;60.00;;;;;;4999342;28;1963;-75
2021/08/16 13:51:14;;;;;;;;;;;22.30;59.90;;;;;;5011337;28;1143;-75
2021/08/16 13:53:39;;;;;;;;;;;22.20;59.70;;;;;;4995937;28;1170;-75
2021/08/16 13:56:05;;;;;;;;;;;22.30;60.20;;;;;;4995306;28;1358;-75
2021/08/16 13:58:30;;;;;;;;;;;22.30;61.20;;;;;;5013486;28;1207;-75
2021/08/16 14:00:55;;;;;;;;;;;22.30;60.50;;;;;;4995669;28;1142;-75
2021/08/16 14:03:21;;;;;;;;;;;22.30;59.80;;;;;;5013244;28;1133;-73
2021/08/16 14:05:47;;;;;;;;;;;22.30;59.40;;;;;;5012059;28;1366;-74
2021/08/16 14:08:12;;;;;;;;;;;22.30;59.50;;;;;;4995418;28;1967;-72
2021/08/16 14:10:38;;;;;;;;;;;22.30;59.50;;;;;;5013242;28;1147;-73
2021/08/16 14:13:03;;;;;;;;;;;22.30;59.90;;;;;;5011929;28;1097;-73
2021/08/16 14:15:29;;;;;;;;;;;22.30;60.00;;;;;;5011693;28;1302;-73
2021/08/16 14:17:54;;;;;;;;;;;22.30;61.20;;;;;;5013067;28;1085;-73
2021/08/16 14:20:19;;;;;;;;;;;22.30;59.70;;;;;;5011873;28;1096;-73
2021/08/16 14:22:45;;;;;;;;;;;22.20;59.40;;;;;;5013089;28;1167;-74
2021/08/16 14:25:10;;;;;;;;;;;22.30;60.00;;;;;;4995031;28;1097;-74